sensor_id;sensor_type;location;lat;lon;timestamp;temperature;humidity
63051;SHT30;49136;47.416;19.402;2023-06-22T00:01:57;21.28;88.22
63051;SHT30;49136;47.416;19.402;2023-06-22T00:04:23;21.24;88.85
63051;SHT30;49136;47.416;19.402;2023-06-22T00:06:48;21.24;88.47
63051;SHT30;49136;47.416;19.402;2023-06-22T00:09:14;21.20;88.97
63051;SHT30;49136;47.416;19.402;2023-06-22T00:11:39;21.21;88.88
63051;SHT30;49136;47.416;19.402;2023-06-22T00:14:05;21.20;89.30
63051;SHT30;49136;47.416;19.402;2023-06-22T00:16:34;21.12;89.71
63051;SHT30;49136;47.416;19.402;2023-06-22T00:19:00;21.11;89.73
63051;SHT30;49136;47.416;19.402;2023-06-22T00:21:29;21.07;90.63
63051;SHT30;49136;47.416;19.402;2023-06-22T00:23:54;21.06;91.87
63051;SHT30;49136;47.416;19.402;2023-06-22T00:26:20;20.97;91.70
63051;SHT30;49136;47.416;19.402;2023-06-22T00:28:46;20.92;92.74
63051;SHT30;49136;47.416;19.402;2023-06-22T00:31:12;20.82;93.91
63051;SHT30;49136;47.416;19.402;2023-06-22T00:33:37;20.76;93.52
63051;SHT30;49136;47.416;19.402;2023-06-22T00:36:03;20.68;94.47
63051;SHT30;49136;47.416;19.402;2023-06-22T00:38:28;20.69;93.68
63051;SHT30;49136;47.416;19.402;2023-06-22T00:40:54;20.69;94.63
63051;SHT30;49136;47.416;19.402;2023-06-22T00:43:19;20.66;95.21
63051;SHT30;49136;47.416;19.402;2023-06-22T00:45:45;20.53;95.97
63051;SHT30;49136;47.416;19.402;2023-06-22T00:48:12;20.56;95.81
63051;SHT30;49136;47.416;19.402;2023-06-22T00:50:37;20.49;95.78
63051;SHT30;49136;47.416;19.402;2023-06-22T00:53:06;20.47;96.45
63051;SHT30;49136;47.416;19.402;2023-06-22T00:55:35;20.47;95.12
63051;SHT30;49136;47.416;19.402;2023-06-22T00:58:03;20.41;95.91
63051;SHT30;49136;47.416;19.402;2023-06-22T01:00:31;20.38;96.97
63051;SHT30;49136;47.416;19.402;2023-06-22T01:02:57;20.33;97.67
63051;SHT30;49136;47.416;19.402;2023-06-22T01:05:23;20.31;97.42
63051;SHT30;49136;47.416;19.402;2023-06-22T01:14:18;20.27;97.07
63051;SHT30;49136;47.416;19.402;2023-06-22T01:16:26;20.30;97.02
63051;SHT30;49136;47.416;19.402;2023-06-22T01:18:55;20.27;96.63
63051;SHT30;49136;47.416;19.402;2023-06-22T01:21:23;20.30;96.62
63051;SHT30;49136;47.416;19.402;2023-06-22T01:29:24;20.24;96.59
63051;SHT30;49136;47.416;19.402;2023-06-22T01:31:51;20.25;97.43
63051;SHT30;49136;47.416;19.402;2023-06-22T01:34:18;20.24;97.73
63051;SHT30;49136;47.416;19.402;2023-06-22T01:36:44;20.20;97.60
63051;SHT30;49136;47.416;19.402;2023-06-22T01:39:11;20.16;97.58
63051;SHT30;49136;47.416;19.402;2023-06-22T01:41:38;20.10;97.88
63051;SHT30;49136;47.416;19.402;2023-06-22T01:44:05;20.12;97.55
63051;SHT30;49136;47.416;19.402;2023-06-22T01:46:34;20.09;97.54
63051;SHT30;49136;47.416;19.402;2023-06-22T01:49:02;20.07;97.81
63051;SHT30;49136;47.416;19.402;2023-06-22T01:51:27;20.09;97.26
63051;SHT30;49136;47.416;19.402;2023-06-22T01:53:53;20.12;97.88
63051;SHT30;49136;47.416;19.402;2023-06-22T01:56:18;20.12;97.55
63051;SHT30;49136;47.416;19.402;2023-06-22T01:58:51;20.12;97.46
63051;SHT30;49136;47.416;19.402;2023-06-22T02:01:24;20.13;96.73
63051;SHT30;49136;47.416;19.402;2023-06-22T02:04:02;20.14;97.41
63051;SHT30;49136;47.416;19.402;2023-06-22T02:06:33;20.05;98.12
63051;SHT30;49136;47.416;19.402;2023-06-22T02:09:02;20.01;98.13
63051;SHT30;49136;47.416;19.402;2023-06-22T02:11:29;19.97;98.14
63051;SHT30;49136;47.416;19.402;2023-06-22T02:13:57;19.96;97.93
63051;SHT30;49136;47.416;19.402;2023-06-22T02:16:23;19.93;97.85
63051;SHT30;49136;47.416;19.402;2023-06-22T02:18:50;19.94;97.99
63051;SHT30;49136;47.416;19.402;2023-06-22T02:21:21;19.92;98.74
63051;SHT30;49136;47.416;19.402;2023-06-22T02:23:47;19.90;98.63
63051;SHT30;49136;47.416;19.402;2023-06-22T02:26:12;19.93;98.37
63051;SHT30;49136;47.416;19.402;2023-06-22T02:28:38;19.92;98.52
63051;SHT30;49136;47.416;19.402;2023-06-22T02:31:04;19.94;97.77
63051;SHT30;49136;47.416;19.402;2023-06-22T02:33:29;19.90;98.55
63051;SHT30;49136;47.416;19.402;2023-06-22T02:35:55;19.92;98.69
63051;SHT30;49136;47.416;19.402;2023-06-22T02:38:20;19.94;99.13
63051;SHT30;49136;47.416;19.402;2023-06-22T02:40:46;19.90;99.00
63051;SHT30;49136;47.416;19.402;2023-06-22T02:43:12;19.92;98.91
63051;SHT30;49136;47.416;19.402;2023-06-22T02:45:38;19.93;98.28
63051;SHT30;49136;47.416;19.402;2023-06-22T02:48:04;19.92;99.10
63051;SHT30;49136;47.416;19.402;2023-06-22T02:50:30;19.86;99.52
63051;SHT30;49136;47.416;19.402;2023-06-22T02:52:55;19.82;99.68
63051;SHT30;49136;47.416;19.402;2023-06-22T02:55:21;19.81;99.69
63051;SHT30;49136;47.416;19.402;2023-06-22T02:57:46;19.82;99.47
63051;SHT30;49136;47.416;19.402;2023-06-22T03:00:13;19.81;99.52
63051;SHT30;49136;47.416;19.402;2023-06-22T03:02:49;19.85;99.34
63051;SHT30;49136;47.416;19.402;2023-06-22T03:05:15;19.89;98.94
63051;SHT30;49136;47.416;19.402;2023-06-22T03:07:43;19.94;97.99
63051;SHT30;49136;47.416;19.402;2023-06-22T03:10:10;19.97;99.20
63051;SHT30;49136;47.416;19.402;2023-06-22T03:12:39;19.97;99.01
63051;SHT30;49136;47.416;19.402;2023-06-22T03:15:06;19.97;98.41
63051;SHT30;49136;47.416;19.402;2023-06-22T03:17:32;20.03;99.16
63051;SHT30;49136;47.416;19.402;2023-06-22T03:19:57;20.06;98.92
63051;SHT30;49136;47.416;19.402;2023-06-22T03:22:22;20.10;98.63
63051;SHT30;49136;47.416;19.402;2023-06-22T03:24:48;20.13;98.59
63051;SHT30;49136;47.416;19.402;2023-06-22T03:27:13;20.17;97.97
63051;SHT30;49136;47.416;19.402;2023-06-22T03:29:39;20.27;97.76
63051;SHT30;49136;47.416;19.402;2023-06-22T03:32:05;20.28;97.65
63051;SHT30;49136;47.416;19.402;2023-06-22T03:34:31;20.34;97.64
63051;SHT30;49136;47.416;19.402;2023-06-22T03:36:58;20.38;97.25
63051;SHT30;49136;47.416;19.402;2023-06-22T03:39:24;20.48;96.84
63051;SHT30;49136;47.416;19.402;2023-06-22T03:41:49;20.56;96.64
63051;SHT30;49136;47.416;19.402;2023-06-22T03:44:15;20.69;95.85
63051;SHT30;49136;47.416;19.402;2023-06-22T03:46:40;20.59;95.69
63051;SHT30;49136;47.416;19.402;2023-06-22T03:49:05;20.68;95.63
63051;SHT30;49136;47.416;19.402;2023-06-22T03:51:32;20.77;95.48
63051;SHT30;49136;47.416;19.402;2023-06-22T03:53:58;20.86;95.89
63051;SHT30;49136;47.416;19.402;2023-06-22T03:56:23;20.97;94.95
63051;SHT30;49136;47.416;19.402;2023-06-22T03:58:49;21.00;94.83
63051;SHT30;49136;47.416;19.402;2023-06-22T04:01:14;21.20;95.10
63051;SHT30;49136;47.416;19.402;2023-06-22T04:03:42;21.21;95.33
63051;SHT30;49136;47.416;19.402;2023-06-22T04:06:07;21.24;94.74
63051;SHT30;49136;47.416;19.402;2023-06-22T04:08:33;21.04;93.70
63051;SHT30;49136;47.416;19.402;2023-06-22T04:10:58;21.10;93.84
63051;SHT30;49136;47.416;19.402;2023-06-22T04:13:24;21.15;93.90
63051;SHT30;49136;47.416;19.402;2023-06-22T04:15:49;21.24;94.09
63051;SHT30;49136;47.416;19.402;2023-06-22T04:18:14;21.45;93.44
63051;SHT30;49136;47.416;19.402;2023-06-22T04:20:40;21.65;93.51
63051;SHT30;49136;47.416;19.402;2023-06-22T04:23:05;21.83;93.84
63051;SHT30;49136;47.416;19.402;2023-06-22T04:25:31;22.04;94.08
63051;SHT30;49136;47.416;19.402;2023-06-22T04:27:56;22.24;91.85
63051;SHT30;49136;47.416;19.402;2023-06-22T04:30:22;22.11;88.75
63051;SHT30;49136;47.416;19.402;2023-06-22T04:32:47;22.46;89.10
63051;SHT30;49136;47.416;19.402;2023-06-22T04:35:23;22.60;87.37
63051;SHT30;49136;47.416;19.402;2023-06-22T04:37:49;22.84;87.99
63051;SHT30;49136;47.416;19.402;2023-06-22T04:40:15;23.18;87.65
63051;SHT30;49136;47.416;19.402;2023-06-22T04:43:01;23.57;87.07
63051;SHT30;49136;47.416;19.402;2023-06-22T04:45:28;23.71;85.85
63051;SHT30;49136;47.416;19.402;2023-06-22T04:47:56;23.91;86.20
63051;SHT30;49136;47.416;19.402;2023-06-22T04:50:22;24.06;86.87
63051;SHT30;49136;47.416;19.402;2023-06-22T04:52:49;24.28;86.19
63051;SHT30;49136;47.416;19.402;2023-06-22T04:55:15;24.37;85.18
63051;SHT30;49136;47.416;19.402;2023-06-22T04:57:45;24.55;85.03
63051;SHT30;49136;47.416;19.402;2023-06-22T05:00:22;24.73;83.75
63051;SHT30;49136;47.416;19.402;2023-06-22T05:02:49;24.91;83.34
63051;SHT30;49136;47.416;19.402;2023-06-22T05:05:14;25.14;82.32
63051;SHT30;49136;47.416;19.402;2023-06-22T05:07:42;25.27;82.72
63051;SHT30;49136;47.416;19.402;2023-06-22T05:10:10;25.08;82.54
63051;SHT30;49136;47.416;19.402;2023-06-22T05:12:36;25.50;81.93
63051;SHT30;49136;47.416;19.402;2023-06-22T05:15:02;25.71;80.90
63051;SHT30;49136;47.416;19.402;2023-06-22T05:17:27;25.92;80.72
63051;SHT30;49136;47.416;19.402;2023-06-22T05:19:53;26.13;80.88
63051;SHT30;49136;47.416;19.402;2023-06-22T05:22:20;26.26;80.19
63051;SHT30;49136;47.416;19.402;2023-06-22T05:24:45;26.25;80.16
63051;SHT30;49136;47.416;19.402;2023-06-22T05:27:11;26.36;80.27
63051;SHT30;49136;47.416;19.402;2023-06-22T05:29:37;26.36;79.09
63051;SHT30;49136;47.416;19.402;2023-06-22T05:32:03;26.40;79.87
63051;SHT30;49136;47.416;19.402;2023-06-22T05:34:28;26.17;79.23
63051;SHT30;49136;47.416;19.402;2023-06-22T05:36:54;26.09;78.50
63051;SHT30;49136;47.416;19.402;2023-06-22T05:39:19;26.32;79.17
63051;SHT30;49136;47.416;19.402;2023-06-22T05:41:45;26.43;78.97
63051;SHT30;49136;47.416;19.402;2023-06-22T05:44:10;26.37;78.29
63051;SHT30;49136;47.416;19.402;2023-06-22T05:46:36;26.50;78.24
63051;SHT30;49136;47.416;19.402;2023-06-22T05:49:02;26.51;78.53
63051;SHT30;49136;47.416;19.402;2023-06-22T05:51:27;26.52;77.68
63051;SHT30;49136;47.416;19.402;2023-06-22T05:53:53;26.54;77.74
63051;SHT30;49136;47.416;19.402;2023-06-22T05:56:18;26.67;76.72
63051;SHT30;49136;47.416;19.402;2023-06-22T05:58:45;26.81;77.54
63051;SHT30;49136;47.416;19.402;2023-06-22T06:01:10;27.06;77.40
63051;SHT30;49136;47.416;19.402;2023-06-22T06:03:36;27.31;76.82
63051;SHT30;49136;47.416;19.402;2023-06-22T06:06:09;27.62;76.76
63051;SHT30;49136;47.416;19.402;2023-06-22T06:08:36;27.85;76.52
63051;SHT30;49136;47.416;19.402;2023-06-22T06:11:01;27.97;75.00
63051;SHT30;49136;47.416;19.402;2023-06-22T06:13:27;28.16;74.08
63051;SHT30;49136;47.416;19.402;2023-06-22T06:15:52;28.07;74.86
63051;SHT30;49136;47.416;19.402;2023-06-22T06:18:20;28.04;75.54
63051;SHT30;49136;47.416;19.402;2023-06-22T06:20:45;28.34;74.75
63051;SHT30;49136;47.416;19.402;2023-06-22T06:23:11;28.56;73.01
63051;SHT30;49136;47.416;19.402;2023-06-22T06:25:36;28.58;71.30
63051;SHT30;49136;47.416;19.402;2023-06-22T06:28:02;28.78;70.13
63051;SHT30;49136;47.416;19.402;2023-06-22T06:30:28;28.82;68.69
63051;SHT30;49136;47.416;19.402;2023-06-22T06:32:54;28.73;70.21
63051;SHT30;49136;47.416;19.402;2023-06-22T06:35:19;28.62;70.87
63051;SHT30;49136;47.416;19.402;2023-06-22T06:37:48;27.81;71.38
63051;SHT30;49136;47.416;19.402;2023-06-22T06:40:14;28.58;71.94
63051;SHT30;49136;47.416;19.402;2023-06-22T06:42:41;28.73;70.61
63051;SHT30;49136;47.416;19.402;2023-06-22T06:45:10;28.44;70.78
63051;SHT30;49136;47.416;19.402;2023-06-22T06:47:36;28.76;69.67
63051;SHT30;49136;47.416;19.402;2023-06-22T06:50:02;29.06;67.89
63051;SHT30;49136;47.416;19.402;2023-06-22T06:52:27;29.15;66.67
63051;SHT30;49136;47.416;19.402;2023-06-22T06:54:53;29.24;66.14
63051;SHT30;49136;47.416;19.402;2023-06-22T06:57:18;29.18;67.61
63051;SHT30;49136;47.416;19.402;2023-06-22T06:59:45;29.21;67.04
63051;SHT30;49136;47.416;19.402;2023-06-22T07:02:11;29.35;66.81
63051;SHT30;49136;47.416;19.402;2023-06-22T07:04:36;29.61;65.18
63051;SHT30;49136;47.416;19.402;2023-06-22T07:07:02;29.62;65.42
63051;SHT30;49136;47.416;19.402;2023-06-22T07:09:28;29.41;66.42
63051;SHT30;49136;47.416;19.402;2023-06-22T07:11:53;28.72;66.48
63051;SHT30;49136;47.416;19.402;2023-06-22T07:14:19;28.59;65.07
63051;SHT30;49136;47.416;19.402;2023-06-22T07:16:44;28.86;64.38
63051;SHT30;49136;47.416;19.402;2023-06-22T07:19:11;27.69;65.16
63051;SHT30;49136;47.416;19.402;2023-06-22T07:21:37;28.83;68.46
63051;SHT30;49136;47.416;19.402;2023-06-22T07:24:02;29.18;65.29
63051;SHT30;49136;47.416;19.402;2023-06-22T07:26:28;29.10;63.08
63051;SHT30;49136;47.416;19.402;2023-06-22T07:28:53;29.37;61.23
63051;SHT30;49136;47.416;19.402;2023-06-22T07:31:19;29.49;61.46
63051;SHT30;49136;47.416;19.402;2023-06-22T07:33:44;29.69;60.46
63051;SHT30;49136;47.416;19.402;2023-06-22T07:36:10;29.72;63.11
63051;SHT30;49136;47.416;19.402;2023-06-22T07:38:35;29.90;60.20
63051;SHT30;49136;47.416;19.402;2023-06-22T07:41:01;29.97;60.02
63051;SHT30;49136;47.416;19.402;2023-06-22T07:43:27;30.06;63.75
63051;SHT30;49136;47.416;19.402;2023-06-22T07:45:55;30.15;66.06
63051;SHT30;49136;47.416;19.402;2023-06-22T07:48:21;30.32;60.63
63051;SHT30;49136;47.416;19.402;2023-06-22T07:50:47;30.36;61.25
63051;SHT30;49136;47.416;19.402;2023-06-22T07:53:12;30.18;59.88
63051;SHT30;49136;47.416;19.402;2023-06-22T07:55:37;30.27;60.28
63051;SHT30;49136;47.416;19.402;2023-06-22T07:58:03;30.42;60.14
63051;SHT30;49136;47.416;19.402;2023-06-22T08:00:28;30.10;60.13
63051;SHT30;49136;47.416;19.402;2023-06-22T08:02:54;30.18;59.94
63051;SHT30;49136;47.416;19.402;2023-06-22T08:05:19;30.18;60.81
63051;SHT30;49136;47.416;19.402;2023-06-22T08:07:45;29.62;60.52
63051;SHT30;49136;47.416;19.402;2023-06-22T08:10:12;30.13;61.99
63051;SHT30;49136;47.416;19.402;2023-06-22T08:12:38;30.36;60.28
63051;SHT30;49136;47.416;19.402;2023-06-22T08:15:04;29.55;58.29
63051;SHT30;49136;47.416;19.402;2023-06-22T08:17:30;29.91;61.52
63051;SHT30;49136;47.416;19.402;2023-06-22T08:19:56;30.07;65.47
63051;SHT30;49136;47.416;19.402;2023-06-22T08:22:22;30.35;59.59
63051;SHT30;49136;47.416;19.402;2023-06-22T08:24:47;30.43;58.81
63051;SHT30;49136;47.416;19.402;2023-06-22T08:27:13;30.69;58.66
63051;SHT30;49136;47.416;19.402;2023-06-22T08:29:40;30.82;59.44
63051;SHT30;49136;47.416;19.402;2023-06-22T08:32:08;30.84;57.86
63051;SHT30;49136;47.416;19.402;2023-06-22T08:34:34;30.56;57.32
63051;SHT30;49136;47.416;19.402;2023-06-22T08:36:59;30.80;57.18
63051;SHT30;49136;47.416;19.402;2023-06-22T08:39:25;30.72;59.06
63051;SHT30;49136;47.416;19.402;2023-06-22T08:41:51;30.80;60.51
63051;SHT30;49136;47.416;19.402;2023-06-22T08:44:18;30.98;59.39
63051;SHT30;49136;47.416;19.402;2023-06-22T08:46:45;31.08;58.16
63051;SHT30;49136;47.416;19.402;2023-06-22T08:49:10;31.12;58.98
63051;SHT30;49136;47.416;19.402;2023-06-22T08:51:36;31.22;59.75
63051;SHT30;49136;47.416;19.402;2023-06-22T08:54:01;31.35;58.54
63051;SHT30;49136;47.416;19.402;2023-06-22T08:56:30;31.43;60.11
63051;SHT30;49136;47.416;19.402;2023-06-22T08:58:55;31.36;58.03
63051;SHT30;49136;47.416;19.402;2023-06-22T09:01:21;31.25;59.71
63051;SHT30;49136;47.416;19.402;2023-06-22T09:03:47;31.38;59.02
63051;SHT30;49136;47.416;19.402;2023-06-22T09:06:20;31.07;59.35
63051;SHT30;49136;47.416;19.402;2023-06-22T09:08:47;31.36;59.70
63051;SHT30;49136;47.416;19.402;2023-06-22T09:11:12;31.41;59.26
63051;SHT30;49136;47.416;19.402;2023-06-22T09:13:38;31.54;59.93
63051;SHT30;49136;47.416;19.402;2023-06-22T09:16:03;31.62;60.58
63051;SHT30;49136;47.416;19.402;2023-06-22T09:18:29;31.69;59.42
63051;SHT30;49136;47.416;19.402;2023-06-22T09:20:54;31.78;58.51
63051;SHT30;49136;47.416;19.402;2023-06-22T09:23:20;31.83;60.08
63051;SHT30;49136;47.416;19.402;2023-06-22T09:25:45;31.94;60.85
63051;SHT30;49136;47.416;19.402;2023-06-22T09:28:13;31.85;60.41
63051;SHT30;49136;47.416;19.402;2023-06-22T09:30:38;32.05;61.02
63051;SHT30;49136;47.416;19.402;2023-06-22T09:33:04;32.09;60.89
63051;SHT30;49136;47.416;19.402;2023-06-22T09:35:29;32.14;58.66
63051;SHT30;49136;47.416;19.402;2023-06-22T09:37:54;32.25;60.31
63051;SHT30;49136;47.416;19.402;2023-06-22T09:40:20;32.24;58.55
63051;SHT30;49136;47.416;19.402;2023-06-22T09:42:45;32.32;60.24
63051;SHT30;49136;47.416;19.402;2023-06-22T09:45:11;31.88;60.05
63051;SHT30;49136;47.416;19.402;2023-06-22T09:47:36;31.32;60.69
63051;SHT30;49136;47.416;19.402;2023-06-22T09:50:05;31.69;62.92
63051;SHT30;49136;47.416;19.402;2023-06-22T09:52:30;31.77;61.16
63051;SHT30;49136;47.416;19.402;2023-06-22T09:54:56;31.42;59.95
63051;SHT30;49136;47.416;19.402;2023-06-22T09:57:21;31.74;61.47
63051;SHT30;49136;47.416;19.402;2023-06-22T09:59:47;32.17;60.47
63051;SHT30;49136;47.416;19.402;2023-06-22T10:02:12;32.49;58.87
63051;SHT30;49136;47.416;19.402;2023-06-22T10:04:38;32.32;58.91
63051;SHT30;49136;47.416;19.402;2023-06-22T10:07:05;32.60;61.72
63051;SHT30;49136;47.416;19.402;2023-06-22T10:09:31;32.76;60.70
63051;SHT30;49136;47.416;19.402;2023-06-22T10:11:56;32.97;60.84
63051;SHT30;49136;47.416;19.402;2023-06-22T10:14:22;32.90;59.63
63051;SHT30;49136;47.416;19.402;2023-06-22T10:16:48;32.73;59.04
63051;SHT30;49136;47.416;19.402;2023-06-22T10:19:13;32.83;61.92
63051;SHT30;49136;47.416;19.402;2023-06-22T10:21:39;33.02;62.44
63051;SHT30;49136;47.416;19.402;2023-06-22T10:24:04;33.26;60.72
63051;SHT30;49136;47.416;19.402;2023-06-22T10:26:34;33.04;61.74
63051;SHT30;49136;47.416;19.402;2023-06-22T10:29:01;32.91;61.23
63051;SHT30;49136;47.416;19.402;2023-06-22T10:31:26;32.67;61.87
63051;SHT30;49136;47.416;19.402;2023-06-22T10:33:53;32.59;59.47
63051;SHT30;49136;47.416;19.402;2023-06-22T10:36:19;32.00;59.63
63051;SHT30;49136;47.416;19.402;2023-06-22T10:38:44;32.09;60.56
63051;SHT30;49136;47.416;19.402;2023-06-22T10:41:10;32.60;60.07
63051;SHT30;49136;47.416;19.402;2023-06-22T10:43:36;32.81;60.47
63051;SHT30;49136;47.416;19.402;2023-06-22T10:46:01;33.12;61.30
63051;SHT30;49136;47.416;19.402;2023-06-22T10:48:27;33.46;58.78
63051;SHT30;49136;47.416;19.402;2023-06-22T10:50:52;33.81;58.67
63051;SHT30;49136;47.416;19.402;2023-06-22T10:53:20;33.84;61.13
63051;SHT30;49136;47.416;19.402;2023-06-22T10:55:47;33.52;58.43
63051;SHT30;49136;47.416;19.402;2023-06-22T10:58:12;33.78;58.83
63051;SHT30;49136;47.416;19.402;2023-06-22T11:00:38;34.13;58.34
63051;SHT30;49136;47.416;19.402;2023-06-22T11:03:03;34.04;55.02
63051;SHT30;49136;47.416;19.402;2023-06-22T11:05:29;34.16;55.51
63051;SHT30;49136;47.416;19.402;2023-06-22T11:07:54;34.08;57.53
63051;SHT30;49136;47.416;19.402;2023-06-22T11:10:20;34.01;58.50
63051;SHT30;49136;47.416;19.402;2023-06-22T11:12:45;34.50;58.02
63051;SHT30;49136;47.416;19.402;2023-06-22T11:15:11;34.70;55.61
63051;SHT30;49136;47.416;19.402;2023-06-22T11:17:36;33.93;56.81
63051;SHT30;49136;47.416;19.402;2023-06-22T11:20:02;34.37;56.62
63051;SHT30;49136;47.416;19.402;2023-06-22T11:22:34;33.68;57.34
63051;SHT30;49136;47.416;19.402;2023-06-22T11:25:00;34.46;56.51
63051;SHT30;49136;47.416;19.402;2023-06-22T11:27:26;34.61;56.26
63051;SHT30;49136;47.416;19.402;2023-06-22T11:29:51;34.67;57.11
63051;SHT30;49136;47.416;19.402;2023-06-22T11:32:18;35.15;55.46
63051;SHT30;49136;47.416;19.402;2023-06-22T11:34:43;35.44;55.12
63051;SHT30;49136;47.416;19.402;2023-06-22T11:37:09;35.02;55.40
63051;SHT30;49136;47.416;19.402;2023-06-22T11:39:34;35.29;54.32
63051;SHT30;49136;47.416;19.402;2023-06-22T11:41:59;35.60;53.45
63051;SHT30;49136;47.416;19.402;2023-06-22T11:44:25;35.87;54.06
63051;SHT30;49136;47.416;19.402;2023-06-22T11:46:50;36.16;54.83
63051;SHT30;49136;47.416;19.402;2023-06-22T11:49:16;36.23;54.04
63051;SHT30;49136;47.416;19.402;2023-06-22T11:51:41;36.30;53.23
63051;SHT30;49136;47.416;19.402;2023-06-22T11:54:07;36.06;52.13
63051;SHT30;49136;47.416;19.402;2023-06-22T11:56:33;36.35;50.58
63051;SHT30;49136;47.416;19.402;2023-06-22T11:58:58;35.95;51.91
63051;SHT30;49136;47.416;19.402;2023-06-22T12:01:23;34.61;52.28
63051;SHT30;49136;47.416;19.402;2023-06-22T12:03:49;35.25;54.64
63051;SHT30;49136;47.416;19.402;2023-06-22T12:06:14;35.60;55.23
63051;SHT30;49136;47.416;19.402;2023-06-22T12:08:42;35.68;53.61
63051;SHT30;49136;47.416;19.402;2023-06-22T12:11:07;35.74;54.82
63051;SHT30;49136;47.416;19.402;2023-06-22T12:13:33;35.65;54.86
63051;SHT30;49136;47.416;19.402;2023-06-22T12:15:58;33.77;52.30
63051;SHT30;49136;47.416;19.402;2023-06-22T12:18:24;34.87;54.52
63051;SHT30;49136;47.416;19.402;2023-06-22T12:20:49;34.02;53.15
63051;SHT30;49136;47.416;19.402;2023-06-22T12:23:15;34.09;54.75
63051;SHT30;49136;47.416;19.402;2023-06-22T12:25:40;34.23;52.94
63051;SHT30;49136;47.416;19.402;2023-06-22T12:28:06;35.01;56.57
63051;SHT30;49136;47.416;19.402;2023-06-22T12:30:33;35.25;54.57
63051;SHT30;49136;47.416;19.402;2023-06-22T12:32:58;34.64;56.04
63051;SHT30;49136;47.416;19.402;2023-06-22T12:35:24;34.57;55.58
63051;SHT30;49136;47.416;19.402;2023-06-22T12:37:49;34.15;53.78
63051;SHT30;49136;47.416;19.402;2023-06-22T12:40:15;34.15;57.46
63051;SHT30;49136;47.416;19.402;2023-06-22T12:42:40;34.83;56.30
63051;SHT30;49136;47.416;19.402;2023-06-22T12:45:07;34.94;57.17
63051;SHT30;49136;47.416;19.402;2023-06-22T12:47:32;35.05;55.27
63051;SHT30;49136;47.416;19.402;2023-06-22T12:49:58;34.52;53.92
63051;SHT30;49136;47.416;19.402;2023-06-22T12:52:24;34.68;54.95
63051;SHT30;49136;47.416;19.402;2023-06-22T12:54:49;34.85;53.70
63051;SHT30;49136;47.416;19.402;2023-06-22T12:57:15;34.94;51.36
63051;SHT30;49136;47.416;19.402;2023-06-22T12:59:40;35.18;51.93
63051;SHT30;49136;47.416;19.402;2023-06-22T13:02:05;35.73;53.38
63051;SHT30;49136;47.416;19.402;2023-06-22T13:04:31;35.68;53.60
63051;SHT30;49136;47.416;19.402;2023-06-22T13:06:56;35.67;54.38
63051;SHT30;49136;47.416;19.402;2023-06-22T13:09:22;36.03;54.13
63051;SHT30;49136;47.416;19.402;2023-06-22T13:11:47;36.22;52.49
63051;SHT30;49136;47.416;19.402;2023-06-22T13:14:13;36.47;53.07
63051;SHT30;49136;47.416;19.402;2023-06-22T13:16:38;36.67;51.30
63051;SHT30;49136;47.416;19.402;2023-06-22T13:19:03;36.20;52.63
63051;SHT30;49136;47.416;19.402;2023-06-22T13:21:30;36.63;51.00
63051;SHT30;49136;47.416;19.402;2023-06-22T13:23:56;36.47;51.88
63051;SHT30;49136;47.416;19.402;2023-06-22T13:26:21;36.58;53.38
63051;SHT30;49136;47.416;19.402;2023-06-22T13:28:47;35.99;52.62
63051;SHT30;49136;47.416;19.402;2023-06-22T13:31:12;36.15;53.72
63051;SHT30;49136;47.416;19.402;2023-06-22T13:33:38;36.12;54.09
63051;SHT30;49136;47.416;19.402;2023-06-22T13:36:06;36.23;51.66
63051;SHT30;49136;47.416;19.402;2023-06-22T13:38:31;36.33;51.49
63051;SHT30;49136;47.416;19.402;2023-06-22T13:40:57;36.30;53.23
63051;SHT30;49136;47.416;19.402;2023-06-22T13:43:26;36.44;51.22
63051;SHT30;49136;47.416;19.402;2023-06-22T13:45:52;35.67;51.01
63051;SHT30;49136;47.416;19.402;2023-06-22T13:48:17;33.85;52.23
63051;SHT30;49136;47.416;19.402;2023-06-22T13:50:43;34.66;55.50
63051;SHT30;49136;47.416;19.402;2023-06-22T13:53:08;35.64;53.01
63051;SHT30;49136;47.416;19.402;2023-06-22T13:55:34;35.64;52.15
63051;SHT30;49136;47.416;19.402;2023-06-22T13:57:59;35.65;52.90
63051;SHT30;49136;47.416;19.402;2023-06-22T14:00:25;35.54;51.79
63051;SHT30;49136;47.416;19.402;2023-06-22T14:02:50;35.50;52.00
63051;SHT30;49136;47.416;19.402;2023-06-22T14:05:16;35.78;54.22
63051;SHT30;49136;47.416;19.402;2023-06-22T14:07:42;35.16;54.27
63051;SHT30;49136;47.416;19.402;2023-06-22T14:10:07;34.23;55.39
63051;SHT30;49136;47.416;19.402;2023-06-22T14:12:33;34.44;55.98
63051;SHT30;49136;47.416;19.402;2023-06-22T14:14:59;34.35;53.68
63051;SHT30;49136;47.416;19.402;2023-06-22T14:17:24;34.52;54.62
63051;SHT30;49136;47.416;19.402;2023-06-22T14:19:52;34.52;57.80
63051;SHT30;49136;47.416;19.402;2023-06-22T14:22:19;34.16;55.00
63051;SHT30;49136;47.416;19.402;2023-06-22T14:24:44;34.91;56.99
63051;SHT30;49136;47.416;19.402;2023-06-22T14:27:09;35.58;53.83
63051;SHT30;49136;47.416;19.402;2023-06-22T14:29:35;35.84;53.77
63051;SHT30;49136;47.416;19.402;2023-06-22T14:32:02;35.50;51.61
63051;SHT30;49136;47.416;19.402;2023-06-22T14:34:28;35.25;54.91
63051;SHT30;49136;47.416;19.402;2023-06-22T14:36:53;35.64;53.87
63051;SHT30;49136;47.416;19.402;2023-06-22T14:39:18;35.15;53.06
63051;SHT30;49136;47.416;19.402;2023-06-22T14:41:45;34.05;54.25
63051;SHT30;49136;47.416;19.402;2023-06-22T14:44:11;33.95;56.14
63051;SHT30;49136;47.416;19.402;2023-06-22T14:46:36;33.76;56.78
63051;SHT30;49136;47.416;19.402;2023-06-22T14:49:01;34.15;58.05
63051;SHT30;49136;47.416;19.402;2023-06-22T14:51:27;34.19;56.80
63051;SHT30;49136;47.416;19.402;2023-06-22T14:53:52;33.97;57.86
63051;SHT30;49136;47.416;19.402;2023-06-22T14:56:18;34.08;57.17
63051;SHT30;49136;47.416;19.402;2023-06-22T14:58:44;34.08;59.13
63051;SHT30;49136;47.416;19.402;2023-06-22T15:01:12;34.63;56.50
63051;SHT30;49136;47.416;19.402;2023-06-22T15:03:38;34.71;56.91
63051;SHT30;49136;47.416;19.402;2023-06-22T15:06:04;34.57;55.24
63051;SHT30;49136;47.416;19.402;2023-06-22T15:08:29;34.61;57.43
63051;SHT30;49136;47.416;19.402;2023-06-22T15:10:58;34.27;55.17
63051;SHT30;49136;47.416;19.402;2023-06-22T15:13:24;34.12;55.94
63051;SHT30;49136;47.416;19.402;2023-06-22T15:15:50;34.05;57.50
63051;SHT30;49136;47.416;19.402;2023-06-22T15:18:16;34.06;58.70
63051;SHT30;49136;47.416;19.402;2023-06-22T15:20:42;34.05;59.94